OCW weather

Warren Field
Washington, North Carolina, United States

Public forecast

Using degrees Fahrenheit for public forecast. Weather courtesy of forecast.io.

Current aviation weather report (METAR) for Warren Field

Retrieved 2019/10/16 10:35 UTC (0 seconds ago):

KOCW 161035Z AUTO 09003KT 10SM -DZ BKN100 BKN120 17/16 A2987 RMK AO2 T01700161

Closest aviation forecast (TAF) to Warren Field

Closest forecast is Pitt Greenville Airport, 16.8 nm (31.2 km) WNW. Retrieved 2019/10/16 06:42 UTC (4 hours ago):

TAF KPGV 160540Z 1606/1706 12003KT P6SM SCT040 BKN100 FM161200 13006KT 5SM -SHRA OVC030 FM161500 15010G15KT 4SM SHRA OVC007 FM162100 27011G17KT P6SM BKN030 FM170000 29010G17KT P6SM SCT050 AMD LTD TO CLD VIS AND WIND